createdAt,value
2023-05-11T00:01:17.562Z,62.34
2023-05-11T00:03:44.634Z,62.35
2023-05-11T00:06:11.817Z,62.56
2023-05-11T00:08:38.768Z,62.52
2023-05-11T00:11:08.633Z,62.60
2023-05-11T00:13:35.792Z,62.47
2023-05-11T00:16:03.860Z,62.32
2023-05-11T00:18:31.388Z,62.66
2023-05-11T00:20:58.478Z,62.50
2023-05-11T00:23:25.476Z,62.59
2023-05-11T00:25:52.410Z,62.57
2023-05-11T00:28:19.386Z,62.65
2023-05-11T00:30:46.489Z,62.75
2023-05-11T00:33:13.554Z,62.54
2023-05-11T00:35:40.795Z,62.52
2023-05-11T00:38:07.773Z,62.68
2023-05-11T00:40:34.861Z,62.65
2023-05-11T00:43:01.845Z,62.68
2023-05-11T00:45:28.823Z,62.64
2023-05-11T00:47:55.868Z,62.73
2023-05-11T00:50:22.917Z,62.75
2023-05-11T00:52:50.375Z,62.46
2023-05-11T00:55:21.255Z,62.81
2023-05-11T00:57:48.477Z,62.68
2023-05-11T01:00:15.787Z,62.78
2023-05-11T01:02:43.076Z,62.52
2023-05-11T01:05:10.637Z,62.87
2023-05-11T01:07:50.317Z,62.68
2023-05-11T01:10:20.524Z,62.72
2023-05-11T01:12:50.196Z,62.82
2023-05-11T01:15:37.220Z,62.79
2023-05-11T01:18:07.220Z,62.90
2023-05-11T01:20:34.993Z,62.78
2023-05-11T01:23:29.396Z,62.86
2023-05-11T01:26:22.381Z,62.58
2023-05-11T01:29:13.624Z,62.63
2023-05-11T01:31:46.925Z,62.73
2023-05-11T01:34:18.207Z,62.89
2023-05-11T01:36:52.628Z,62.88
2023-05-11T01:39:25.537Z,62.88
2023-05-11T01:41:54.807Z,62.76
2023-05-11T01:44:26.238Z,62.86
2023-05-11T01:46:54.248Z,62.72
2023-05-11T01:49:22.254Z,62.72
2023-05-11T01:51:51.856Z,62.84
2023-05-11T01:54:21.619Z,62.73
2023-05-11T01:56:50.595Z,62.79
2023-05-11T01:59:19.324Z,62.75
2023-05-11T02:01:46.709Z,62.89
2023-05-11T02:04:16.237Z,62.90
2023-05-11T02:06:44.383Z,62.89
2023-05-11T02:09:13.571Z,62.83
2023-05-11T02:11:43.185Z,62.87
2023-05-11T02:14:12.171Z,62.91
2023-05-11T02:16:39.700Z,62.97
2023-05-11T02:19:08.422Z,62.90
2023-05-11T02:21:37.138Z,62.80
2023-05-11T02:24:06.773Z,62.71
2023-05-11T02:26:33.746Z,62.76
2023-05-11T02:29:00.835Z,62.82
2023-05-11T02:31:30.728Z,62.86
2023-05-11T02:34:04.856Z,62.89
2023-05-11T02:36:35.923Z,62.80
2023-05-11T02:39:07.497Z,62.74
2023-05-11T02:41:41.552Z,62.59
2023-05-11T02:44:12.610Z,62.52
2023-05-11T02:46:40.780Z,62.35
2023-05-11T02:49:09.791Z,62.43
2023-05-11T02:51:38.069Z,62.26
2023-05-11T02:54:11.363Z,62.43
2023-05-11T02:56:39.338Z,62.26
2023-05-11T02:59:06.905Z,62.39
2023-05-11T03:01:34.237Z,62.21
2023-05-11T03:04:05.091Z,62.41
2023-05-11T03:06:33.646Z,62.30
2023-05-11T03:09:02.136Z,62.14
2023-05-11T03:11:29.475Z,62.18
2023-05-11T03:13:56.896Z,62.11
2023-05-11T03:16:25.025Z,61.97
2023-05-11T03:18:52.518Z,62.22
2023-05-11T03:21:21.688Z,62.02
2023-05-11T03:23:49.881Z,62.19
2023-05-11T03:26:22.402Z,62.12
2023-05-11T03:28:52.725Z,61.85
2023-05-11T03:31:19.908Z,61.92
2023-05-11T03:33:46.855Z,61.91
2023-05-11T03:36:15.164Z,61.98
2023-05-11T03:38:43.092Z,61.86
2023-05-11T03:41:11.592Z,62.00
2023-05-11T03:43:41.227Z,62.02
2023-05-11T03:46:09.259Z,61.97
2023-05-11T03:48:36.528Z,62.04
2023-05-11T03:51:05.225Z,61.83
2023-05-11T03:53:32.426Z,61.93
2023-05-11T03:55:59.493Z,61.74
2023-05-11T03:58:26.667Z,61.75
2023-05-11T04:00:53.618Z,61.85
2023-05-11T04:03:20.919Z,61.82
2023-05-11T04:05:47.985Z,61.60
2023-05-11T04:08:15.173Z,61.89
2023-05-11T04:10:42.246Z,61.81
2023-05-11T04:13:09.239Z,61.91
2023-05-11T04:15:37.876Z,61.80
2023-05-11T04:18:04.964Z,61.70
2023-05-11T04:20:31.997Z,61.79
2023-05-11T04:22:58.992Z,61.72
2023-05-11T04:25:26.488Z,61.51
2023-05-11T04:27:53.561Z,61.58
2023-05-11T04:30:22.031Z,60.85
2023-05-11T04:32:49.132Z,61.11
2023-05-11T04:35:16.432Z,61.18
2023-05-11T04:37:43.620Z,61.42
2023-05-11T04:40:11.390Z,61.67
2023-05-11T04:42:38.384Z,61.63
2023-05-11T04:45:05.768Z,61.67
2023-05-11T04:47:32.739Z,61.54
2023-05-11T04:49:59.908Z,61.60
2023-05-11T04:52:27.119Z,61.70
2023-05-11T04:54:54.117Z,61.39
2023-05-11T04:57:21.264Z,57.09
2023-05-11T04:59:48.397Z,55.93
2023-05-11T05:02:15.339Z,54.87
2023-05-11T05:04:42.327Z,56.26
2023-05-11T05:07:09.664Z,58.28
2023-05-11T05:09:36.601Z,58.80
2023-05-11T05:12:03.605Z,59.04
2023-05-11T05:14:32.056Z,59.37
2023-05-11T05:17:01.191Z,59.39
2023-05-11T05:19:28.368Z,59.40
2023-05-11T05:21:55.338Z,59.67
2023-05-11T05:24:22.274Z,59.78
2023-05-11T05:26:49.418Z,59.84
2023-05-11T05:29:16.510Z,59.48
2023-05-11T05:31:43.485Z,59.87
2023-05-11T05:34:10.640Z,60.01
2023-05-11T05:36:37.670Z,60.08
2023-05-11T05:39:09.275Z,60.28
2023-05-11T05:41:37.297Z,60.01
2023-05-11T05:44:04.380Z,60.18
2023-05-11T05:46:31.574Z,60.10
2023-05-11T05:48:58.773Z,60.34
2023-05-11T05:51:25.890Z,60.35
2023-05-11T05:53:52.846Z,54.80
2023-05-11T05:56:19.889Z,57.14
2023-05-11T05:58:46.878Z,58.67
2023-05-11T06:01:14.048Z,59.19
2023-05-11T06:03:41.175Z,59.41
2023-05-11T06:06:08.424Z,59.18
2023-05-11T06:08:35.414Z,59.46
2023-05-11T06:11:02.398Z,59.51
2023-05-11T06:13:29.822Z,59.42
2023-05-11T06:15:56.899Z,59.44
2023-05-11T06:18:23.975Z,59.44
2023-05-11T06:20:50.917Z,59.52
2023-05-11T06:23:17.977Z,59.57
2023-05-11T06:25:45.239Z,60.24
2023-05-11T06:28:12.244Z,59.96
2023-05-11T06:30:39.786Z,60.26
2023-05-11T06:33:06.794Z,59.83
2023-05-11T06:35:34.025Z,59.78
2023-05-11T06:38:01.013Z,60.04
2023-05-11T06:40:28.182Z,60.69
2023-05-11T06:42:55.276Z,60.50
2023-05-11T06:45:22.341Z,61.10
2023-05-11T06:47:50.000Z,60.91
2023-05-11T06:50:19.446Z,60.67
2023-05-11T06:52:47.933Z,60.92
2023-05-11T06:55:15.075Z,61.23
2023-05-11T06:57:42.482Z,61.38
2023-05-11T07:00:10.038Z,61.25
2023-05-11T07:02:37.428Z,61.47
2023-05-11T07:05:04.824Z,60.66
2023-05-11T07:07:32.098Z,56.44
2023-05-11T07:09:59.114Z,55.99
2023-05-11T07:12:26.753Z,56.59
2023-05-11T07:14:53.790Z,57.33
2023-05-11T07:17:21.094Z,58.13
2023-05-11T07:19:48.346Z,58.73
2023-05-11T07:22:15.358Z,58.62
2023-05-11T07:24:42.698Z,58.98
2023-05-11T07:27:09.834Z,59.04
2023-05-11T07:29:37.336Z,59.10
2023-05-11T07:32:04.892Z,59.49
2023-05-11T07:34:32.048Z,59.66
2023-05-11T07:36:59.294Z,59.77
2023-05-11T07:39:26.405Z,60.01
2023-05-11T07:41:53.434Z,59.88
2023-05-11T07:44:20.806Z,60.11
2023-05-11T07:46:47.927Z,59.90
2023-05-11T07:49:18.833Z,59.81
2023-05-11T07:51:47.896Z,59.75
2023-05-11T07:54:15.056Z,59.76
2023-05-11T07:56:42.742Z,59.67
2023-05-11T07:59:10.054Z,59.99
2023-05-11T08:01:37.260Z,60.10
2023-05-11T08:04:04.450Z,59.74
2023-05-11T08:06:31.685Z,59.65
2023-05-11T08:08:58.766Z,59.74
2023-05-11T08:11:26.588Z,59.63
2023-05-11T08:13:53.562Z,59.35
2023-05-11T08:16:20.693Z,59.01
2023-05-11T08:18:48.147Z,58.57
2023-05-11T08:21:15.164Z,58.67
2023-05-11T08:23:43.906Z,58.40
2023-05-11T08:26:12.101Z,58.21
2023-05-11T08:28:39.384Z,58.27
2023-05-11T08:31:06.703Z,58.39
2023-05-11T08:33:38.080Z,58.40
2023-05-11T08:36:07.289Z,58.24
2023-05-11T08:38:35.758Z,58.67
2023-05-11T08:41:03.598Z,58.56
2023-05-11T08:43:32.753Z,58.94
2023-05-11T08:46:04.126Z,59.01
2023-05-11T08:48:33.940Z,58.61
2023-05-11T08:51:01.391Z,58.88
2023-05-11T08:53:28.811Z,58.56
2023-05-11T08:55:59.737Z,58.96
2023-05-11T08:58:28.283Z,58.72
2023-05-11T09:00:55.975Z,58.73
2023-05-11T09:03:24.043Z,58.81
2023-05-11T09:05:52.602Z,58.91
2023-05-11T09:08:21.589Z,58.70
2023-05-11T09:10:50.067Z,58.55
2023-05-11T09:13:17.364Z,58.90
2023-05-11T09:15:44.442Z,58.98
2023-05-11T09:18:11.773Z,58.94
2023-05-11T09:20:43.771Z,58.92
2023-05-11T09:23:10.956Z,58.84
2023-05-11T09:25:40.183Z,59.11
2023-05-11T09:28:07.242Z,58.78
2023-05-11T09:30:34.445Z,59.03
2023-05-11T09:33:03.018Z,58.45
2023-05-11T09:35:34.869Z,58.46
2023-05-11T09:38:08.747Z,58.59
2023-05-11T09:40:38.451Z,58.53
2023-05-11T09:43:31.851Z,58.43
2023-05-11T09:46:07.719Z,58.49
2023-05-11T09:48:35.698Z,58.36
2023-05-11T09:51:07.775Z,58.19
2023-05-11T09:53:46.406Z,58.43
2023-05-11T09:56:14.349Z,58.30
2023-05-11T09:58:50.412Z,58.19
2023-05-11T10:01:20.063Z,57.90
2023-05-11T10:03:52.571Z,57.92
2023-05-11T10:06:20.446Z,57.70
2023-05-11T10:08:48.519Z,58.24
2023-05-11T10:11:15.848Z,57.98
2023-05-11T10:13:46.209Z,57.83
2023-05-11T10:16:16.868Z,57.73
2023-05-11T10:18:45.193Z,57.78
2023-05-11T10:21:15.779Z,57.92
2023-05-11T10:23:43.618Z,57.59
2023-05-11T10:26:11.533Z,57.63
2023-05-11T10:28:39.016Z,57.66
2023-05-11T10:31:07.298Z,57.59
2023-05-11T10:33:35.074Z,57.49
2023-05-11T10:36:03.468Z,57.42
2023-05-11T10:38:30.478Z,57.76
2023-05-11T10:41:08.073Z,57.75
2023-05-11T10:43:50.457Z,57.32
2023-05-11T10:46:42.906Z,57.14
2023-05-11T10:49:34.262Z,57.78
2023-05-11T10:52:17.048Z,58.13
2023-05-11T10:54:53.039Z,57.62
2023-05-11T10:57:42.492Z,57.98
2023-05-11T11:00:19.089Z,57.77
2023-05-11T11:02:46.664Z,57.81
2023-05-11T11:05:18.216Z,57.71
2023-05-11T11:08:04.528Z,57.63
2023-05-11T11:10:34.609Z,57.85
2023-05-11T11:13:10.482Z,57.71
2023-05-11T11:15:56.456Z,57.72
2023-05-11T11:18:31.402Z,57.71
2023-05-11T11:20:59.388Z,54.95
2023-05-11T11:23:45.439Z,55.00
2023-05-11T11:26:17.718Z,54.16
2023-05-11T11:29:02.953Z,53.39
2023-05-11T11:31:31.211Z,53.21
2023-05-11T11:34:01.520Z,54.89
2023-05-11T11:36:56.641Z,55.01
2023-05-11T11:39:28.181Z,55.29
2023-05-11T11:42:12.339Z,55.39
2023-05-11T11:44:41.573Z,55.68
2023-05-11T11:47:16.432Z,56.16
2023-05-11T11:49:49.367Z,56.70
2023-05-11T11:52:31.507Z,57.57
2023-05-11T11:55:03.199Z,57.88
2023-05-11T11:57:30.509Z,58.27
2023-05-11T11:59:58.335Z,58.56
2023-05-11T12:02:28.064Z,58.45
2023-05-11T12:05:22.989Z,58.37
2023-05-11T12:07:52.541Z,58.84
2023-05-11T12:10:22.024Z,58.81
2023-05-11T12:12:51.773Z,57.51
2023-05-11T12:15:30.821Z,55.08
2023-05-11T12:17:58.317Z,54.46
2023-05-11T12:20:26.585Z,55.70
2023-05-11T12:22:54.005Z,55.95
2023-05-11T12:25:22.254Z,56.48
2023-05-11T12:28:02.564Z,56.52
2023-05-11T12:30:31.904Z,56.97
2023-05-11T12:33:04.806Z,56.55
2023-05-11T12:35:36.525Z,57.16
2023-05-11T12:38:04.015Z,57.13
2023-05-11T12:40:31.662Z,56.98
2023-05-11T12:43:00.967Z,56.99
2023-05-11T12:45:29.628Z,57.01
2023-05-11T12:47:58.932Z,57.05
2023-05-11T12:50:26.307Z,57.35
2023-05-11T12:52:53.682Z,57.39
2023-05-11T12:55:31.808Z,57.00
2023-05-11T12:58:36.327Z,56.50
2023-05-11T13:01:03.638Z,56.80
2023-05-11T13:03:34.710Z,56.94
2023-05-11T13:06:10.779Z,56.75
2023-05-11T13:08:46.502Z,57.08
2023-05-11T13:11:27.772Z,57.97
2023-05-11T13:13:58.183Z,58.43
2023-05-11T13:16:32.585Z,58.44
2023-05-11T13:19:05.243Z,58.85
2023-05-11T13:21:33.972Z,59.00
2023-05-11T13:24:05.243Z,58.96
2023-05-11T13:26:33.345Z,59.05
2023-05-11T13:29:09.415Z,59.64
2023-05-11T13:31:49.033Z,59.46
2023-05-11T13:34:17.148Z,59.56
2023-05-11T13:36:45.227Z,59.79
2023-05-11T13:39:13.979Z,59.63
2023-05-11T13:41:41.336Z,59.43
2023-05-11T13:44:08.825Z,59.68
2023-05-11T13:46:36.828Z,60.07
2023-05-11T13:49:05.394Z,60.04
2023-05-11T13:51:34.021Z,60.01
2023-05-11T13:54:02.972Z,59.73
2023-05-11T13:56:30.574Z,55.91
2023-05-11T13:58:59.971Z,54.62
2023-05-11T14:01:28.113Z,54.45
2023-05-11T14:03:56.944Z,53.82
2023-05-11T14:06:26.356Z,53.79
2023-05-11T14:08:54.625Z,53.41
2023-05-11T14:11:21.956Z,52.50
2023-05-11T14:13:49.315Z,52.25
2023-05-11T14:16:16.584Z,51.47
2023-05-11T14:18:43.905Z,51.71
2023-05-11T14:21:11.245Z,51.38
2023-05-11T14:23:43.156Z,51.86
2023-05-11T14:26:14.634Z,53.04
2023-05-11T14:28:41.790Z,53.08
2023-05-11T14:31:09.364Z,53.83
2023-05-11T14:33:36.584Z,54.10
2023-05-11T14:36:04.294Z,54.65
2023-05-11T14:38:33.195Z,54.95
2023-05-11T14:41:00.522Z,55.83
2023-05-11T14:43:27.932Z,56.28
2023-05-11T14:45:55.411Z,56.80
2023-05-11T14:48:23.785Z,57.07
2023-05-11T14:50:50.881Z,57.27
2023-05-11T14:53:18.387Z,57.27
2023-05-11T14:55:45.685Z,57.16
2023-05-11T14:58:12.815Z,57.08
2023-05-11T15:00:40.925Z,57.37
2023-05-11T15:03:08.995Z,57.46
2023-05-11T15:05:36.481Z,57.71
2023-05-11T15:08:03.746Z,57.62
2023-05-11T15:10:31.097Z,57.72
2023-05-11T15:12:58.762Z,58.14
2023-05-11T15:15:26.211Z,58.42
2023-05-11T15:17:53.510Z,58.90
2023-05-11T15:20:20.879Z,58.95
2023-05-11T15:22:48.055Z,58.07
2023-05-11T15:25:15.225Z,56.74
2023-05-11T15:27:42.473Z,56.47
2023-05-11T15:30:10.347Z,56.65
2023-05-11T15:32:37.555Z,56.81
2023-05-11T15:35:05.088Z,57.34
2023-05-11T15:37:32.255Z,57.13
2023-05-11T15:40:01.099Z,56.82
2023-05-11T15:42:29.192Z,58.47
2023-05-11T15:44:56.969Z,57.35
2023-05-11T15:47:24.991Z,57.47
2023-05-11T15:49:53.987Z,57.44
2023-05-11T15:52:21.718Z,57.58
2023-05-11T15:54:49.174Z,57.24
2023-05-11T15:57:17.013Z,57.70
2023-05-11T15:59:44.486Z,57.97
2023-05-11T16:02:13.137Z,57.99
2023-05-11T16:04:41.503Z,58.18
2023-05-11T16:07:09.803Z,58.83
2023-05-11T16:09:37.575Z,58.52
2023-05-11T16:12:09.503Z,59.17
2023-05-11T16:14:36.887Z,58.85
2023-05-11T16:17:04.755Z,58.59
2023-05-11T16:19:35.078Z,59.03
2023-05-11T16:22:02.582Z,58.75
2023-05-11T16:24:33.481Z,58.79
2023-05-11T16:27:03.175Z,58.49
2023-05-11T16:29:30.607Z,58.63
2023-05-11T16:31:57.936Z,58.71
2023-05-11T16:34:25.280Z,58.67
2023-05-11T16:36:55.332Z,58.85
2023-05-11T16:39:24.984Z,58.74
2023-05-11T16:41:52.486Z,58.86
2023-05-11T16:44:19.836Z,58.71
2023-05-11T16:46:47.935Z,58.90
2023-05-11T16:49:15.558Z,58.72
2023-05-11T16:51:44.351Z,58.97
2023-05-11T16:54:13.593Z,58.96
2023-05-11T16:56:41.182Z,58.77
2023-05-11T16:59:10.722Z,59.03
2023-05-11T17:01:38.285Z,59.11
2023-05-11T17:04:05.676Z,58.87
2023-05-11T17:06:33.991Z,59.12
2023-05-11T17:09:01.132Z,58.90
2023-05-11T17:11:28.386Z,58.81
2023-05-11T17:13:55.697Z,58.24
2023-05-11T17:16:23.921Z,57.11
2023-05-11T17:18:52.265Z,56.69
2023-05-11T17:21:20.941Z,56.98
2023-05-11T17:23:49.703Z,57.30
2023-05-11T17:26:19.095Z,57.54
2023-05-11T17:28:47.951Z,57.62
2023-05-11T17:31:16.345Z,58.24
2023-05-11T17:33:44.828Z,56.92
2023-05-11T17:36:13.270Z,56.80
2023-05-11T17:38:40.722Z,56.53
2023-05-11T17:41:08.352Z,56.65
2023-05-11T17:43:38.313Z,56.65
2023-05-11T17:46:06.615Z,57.24
2023-05-11T17:48:34.464Z,57.65
2023-05-11T17:51:02.654Z,57.72
2023-05-11T17:53:30.202Z,57.69
2023-05-11T17:56:01.185Z,57.51
2023-05-11T17:58:28.691Z,57.83
2023-05-11T18:00:56.973Z,58.12
2023-05-11T18:03:25.071Z,58.19
2023-05-11T18:05:54.290Z,58.54
2023-05-11T18:08:21.956Z,58.59
2023-05-11T18:10:49.810Z,58.83
2023-05-11T18:13:17.561Z,58.43
2023-05-11T18:15:45.614Z,58.51
2023-05-11T18:18:13.403Z,58.27
2023-05-11T18:20:40.841Z,58.34
2023-05-11T18:23:08.192Z,58.30
2023-05-11T18:25:35.419Z,58.42
2023-05-11T18:28:05.010Z,58.62
2023-05-11T18:30:34.987Z,58.82
2023-05-11T18:33:02.998Z,58.71
2023-05-11T18:35:30.871Z,58.42
2023-05-11T18:37:59.910Z,58.46
2023-05-11T18:40:27.701Z,58.46
2023-05-11T18:42:56.825Z,58.98
2023-05-11T18:45:24.140Z,59.09
2023-05-11T18:47:52.253Z,59.17
2023-05-11T18:50:21.010Z,59.08
2023-05-11T18:52:48.439Z,58.90
2023-05-11T18:55:15.775Z,58.79
2023-05-11T18:57:43.604Z,59.13
2023-05-11T19:00:12.015Z,59.11
2023-05-11T19:02:39.010Z,59.32
2023-05-11T19:05:07.195Z,59.25
2023-05-11T19:07:34.712Z,59.21
2023-05-11T19:10:01.951Z,59.48
2023-05-11T19:12:29.337Z,59.72
2023-05-11T19:14:57.279Z,59.71
2023-05-11T19:17:24.521Z,59.49
2023-05-11T19:19:52.622Z,59.56
2023-05-11T19:22:21.758Z,59.54
2023-05-11T19:24:48.975Z,59.75
2023-05-11T19:27:16.317Z,59.76
2023-05-11T19:29:43.682Z,59.75
2023-05-11T19:32:11.096Z,59.87
2023-05-11T19:34:38.616Z,59.79
2023-05-11T19:37:06.459Z,59.70
2023-05-11T19:39:33.726Z,59.97
2023-05-11T19:42:02.893Z,60.18
2023-05-11T19:44:33.495Z,59.98
2023-05-11T19:47:00.758Z,60.28
2023-05-11T19:49:31.262Z,60.71
2023-05-11T19:51:59.803Z,60.47
2023-05-11T19:54:28.142Z,60.81
2023-05-11T19:56:57.975Z,61.34
2023-05-11T19:59:28.013Z,61.50
2023-05-11T20:01:55.324Z,61.16
2023-05-11T20:04:22.519Z,61.16
2023-05-11T20:06:49.880Z,61.10
2023-05-11T20:09:18.677Z,61.04
2023-05-11T20:11:46.349Z,61.18
2023-05-11T20:14:14.004Z,60.78
2023-05-11T20:16:41.651Z,60.69
2023-05-11T20:19:09.998Z,60.73
2023-05-11T20:21:37.710Z,60.76
2023-05-11T20:24:05.315Z,60.38
2023-05-11T20:26:32.620Z,60.64
2023-05-11T20:28:59.763Z,60.64
2023-05-11T20:31:27.886Z,60.32
2023-05-11T20:36:27.501Z,60.45
2023-05-11T20:38:54.785Z,60.36
2023-05-11T20:41:23.374Z,60.19
2023-05-11T20:43:52.569Z,60.37
2023-05-11T20:46:19.911Z,60.37
2023-05-11T20:48:51.513Z,60.47
2023-05-11T20:51:23.853Z,60.24
2023-05-11T20:53:52.093Z,60.13
2023-05-11T20:56:19.218Z,59.95
2023-05-11T20:58:48.156Z,60.23
2023-05-11T21:01:16.178Z,59.93
2023-05-11T21:03:43.615Z,57.82
2023-05-11T21:06:10.897Z,56.52
2023-05-11T21:08:38.019Z,56.38
2023-05-11T21:11:05.277Z,57.49
2023-05-11T21:13:32.854Z,58.25
2023-05-11T21:16:00.266Z,58.08
2023-05-11T21:18:32.472Z,58.85
2023-05-11T21:21:00.210Z,58.41
2023-05-11T21:23:28.640Z,58.84
2023-05-11T21:25:57.100Z,58.76
2023-05-11T21:28:28.169Z,58.67
2023-05-11T21:30:55.272Z,58.84
2023-05-11T21:33:22.357Z,58.89
2023-05-11T21:35:49.801Z,59.27
2023-05-11T21:38:18.295Z,59.08
2023-05-11T21:40:51.876Z,59.25
2023-05-11T21:43:22.493Z,59.28
2023-05-11T21:45:50.864Z,59.18
2023-05-11T21:48:18.117Z,59.20
2023-05-11T21:50:45.246Z,59.25
2023-05-11T21:53:12.563Z,59.39
2023-05-11T21:55:39.750Z,59.28
2023-05-11T21:58:06.931Z,59.37
2023-05-11T22:00:35.398Z,59.74
2023-05-11T22:03:03.036Z,59.51
2023-05-11T22:05:30.387Z,59.68
2023-05-11T22:08:06.678Z,59.65
2023-05-11T22:10:40.721Z,59.73
2023-05-11T22:13:07.790Z,59.76
2023-05-11T22:15:34.829Z,59.73
2023-05-11T22:18:01.837Z,59.45
2023-05-11T22:20:28.965Z,59.72
2023-05-11T22:22:55.969Z,59.72
2023-05-11T22:25:23.238Z,59.64
2023-05-11T22:27:50.638Z,59.69
2023-05-11T22:30:18.641Z,59.70
2023-05-11T22:32:46.076Z,59.40
2023-05-11T22:35:13.118Z,59.61
2023-05-11T22:37:40.404Z,59.82
2023-05-11T22:40:07.973Z,59.75
2023-05-11T22:42:35.192Z,59.91
2023-05-11T22:45:02.831Z,59.91
2023-05-11T22:47:29.950Z,59.73
2023-05-11T22:49:57.113Z,59.93
2023-05-11T22:52:25.403Z,59.91
2023-05-11T22:54:58.096Z,59.73
2023-05-11T22:57:26.899Z,59.80
2023-05-11T22:59:53.992Z,59.91
2023-05-11T23:02:21.458Z,60.01
2023-05-11T23:04:52.834Z,59.70
2023-05-11T23:07:20.252Z,59.92
2023-05-11T23:09:48.042Z,60.03
2023-05-11T23:12:15.050Z,59.86
2023-05-11T23:14:42.200Z,59.82
2023-05-11T23:17:09.504Z,59.74
2023-05-11T23:19:36.967Z,59.89
2023-05-11T23:22:04.277Z,59.90
2023-05-11T23:24:31.574Z,59.94
2023-05-11T23:26:59.342Z,59.86
2023-05-11T23:29:28.574Z,60.05
2023-05-11T23:31:56.508Z,59.89
2023-05-11T23:34:23.532Z,60.15
2023-05-11T23:36:50.658Z,59.83
2023-05-11T23:39:32.951Z,60.03
2023-05-11T23:42:01.090Z,59.95
2023-05-11T23:44:28.551Z,59.71
2023-05-11T23:46:55.519Z,59.88
2023-05-11T23:49:22.791Z,59.89
2023-05-11T23:51:50.686Z,60.18
2023-05-11T23:54:17.636Z,60.12
2023-05-11T23:56:45.126Z,60.17
2023-05-11T23:59:12.249Z,60.17
